createdAt,value
2023-03-21T00:00:48.620Z,2.40
2023-03-21T00:03:16.694Z,2.60
2023-03-21T00:05:49.967Z,2.77
2023-03-21T00:08:18.015Z,2.70
2023-03-21T00:10:45.905Z,2.53
2023-03-21T00:13:15.207Z,3.17
2023-03-21T00:16:06.709Z,2.83
2023-03-21T00:18:42.261Z,2.60
2023-03-21T00:21:39.583Z,2.43
2023-03-21T00:24:01.851Z,2.73
2023-03-21T00:26:29.724Z,2.60
2023-03-21T00:28:57.530Z,2.70
2023-03-21T00:31:25.656Z,2.53
2023-03-21T00:33:54.726Z,3.43
2023-03-21T00:36:25.876Z,2.60
2023-03-21T00:38:53.745Z,3.10
2023-03-21T00:41:40.713Z,2.97
2023-03-21T00:44:09.652Z,2.57
2023-03-21T00:46:45.584Z,2.93
2023-03-21T00:49:21.684Z,2.33
2023-03-21T00:51:51.681Z,2.63
2023-03-21T00:54:20.358Z,2.40
2023-03-21T00:56:48.134Z,3.00
2023-03-21T00:59:16.703Z,2.50
2023-03-21T01:01:46.544Z,2.90
2023-03-21T01:04:16.814Z,2.90
2023-03-21T01:06:46.296Z,2.40
2023-03-21T01:09:16.550Z,2.93
2023-03-21T01:11:45.172Z,2.70
2023-03-21T01:14:22.579Z,2.70
2023-03-21T01:16:51.595Z,2.80
2023-03-21T01:19:27.454Z,3.00
2023-03-21T01:21:59.025Z,2.90
2023-03-21T01:24:26.782Z,2.70
2023-03-21T01:26:55.021Z,2.40
2023-03-21T01:29:22.692Z,2.33
2023-03-21T01:31:50.411Z,3.03
2023-03-21T01:34:18.136Z,2.80
2023-03-21T01:36:46.053Z,2.67
2023-03-21T01:39:15.297Z,2.63
2023-03-21T01:41:44.735Z,2.30
2023-03-21T01:44:16.421Z,2.50
2023-03-21T01:46:56.986Z,2.40
2023-03-21T01:49:34.385Z,2.30
2023-03-21T01:52:12.773Z,2.50
2023-03-21T01:54:44.559Z,2.60
2023-03-21T01:57:17.762Z,3.13
2023-03-21T01:59:50.083Z,2.17
2023-03-21T02:02:23.223Z,2.10
2023-03-21T02:04:56.171Z,2.60
2023-03-21T02:07:28.869Z,1.98
2023-03-21T02:10:00.146Z,3.63
2023-03-21T02:12:28.571Z,2.92
2023-03-21T02:14:57.269Z,2.83
2023-03-21T02:17:33.960Z,2.40
2023-03-21T02:20:46.928Z,2.40
2023-03-21T02:23:59.643Z,2.50
2023-03-21T02:27:03.060Z,2.60
2023-03-21T02:30:14.846Z,2.80
2023-03-21T02:33:01.087Z,2.23
2023-03-21T02:35:54.546Z,2.30
2023-03-21T02:38:32.318Z,2.37
2023-03-21T02:41:13.149Z,2.40
2023-03-21T02:43:53.449Z,2.80
2023-03-21T02:46:33.504Z,2.33
2023-03-21T02:49:12.795Z,2.23
2023-03-21T02:51:43.143Z,2.57
2023-03-21T02:54:30.390Z,2.30
2023-03-21T02:57:05.537Z,2.37
2023-03-21T02:59:39.362Z,2.50
2023-03-21T03:02:09.792Z,2.60
2023-03-21T03:04:37.568Z,2.70
2023-03-21T03:07:18.903Z,2.90
2023-03-21T03:10:11.370Z,2.73
2023-03-21T03:12:46.632Z,2.70
2023-03-21T03:15:28.485Z,2.90
2023-03-21T03:18:04.404Z,2.80
2023-03-21T03:20:45.438Z,2.57
2023-03-21T03:23:22.366Z,2.20
2023-03-21T03:25:57.645Z,2.58
2023-03-21T03:28:28.428Z,2.73
2023-03-21T03:31:08.512Z,2.70
2023-03-21T03:33:41.593Z,2.17
2023-03-21T03:36:21.402Z,2.60
2023-03-21T03:38:52.939Z,2.23
2023-03-21T03:41:25.910Z,3.27
2023-03-21T03:43:56.137Z,2.67
2023-03-21T03:46:42.106Z,2.90
2023-03-21T03:49:15.221Z,2.90
2023-03-21T03:51:51.011Z,3.00
2023-03-21T03:54:23.429Z,2.80
2023-03-21T03:56:52.748Z,2.83
2023-03-21T03:59:23.392Z,3.00
2023-03-21T04:01:51.131Z,2.90
2023-03-21T04:04:18.923Z,2.60
2023-03-21T04:06:51.555Z,2.60
2023-03-21T04:09:24.972Z,2.93
2023-03-21T04:11:58.275Z,2.70
2023-03-21T04:14:35.576Z,2.75
2023-03-21T04:17:11.232Z,3.27
2023-03-21T04:19:39.224Z,3.20
2023-03-21T04:22:07.325Z,3.00
2023-03-21T04:24:37.417Z,3.23
2023-03-21T04:27:06.861Z,3.17
2023-03-21T04:29:34.679Z,2.70
2023-03-21T04:32:02.440Z,3.20
2023-03-21T04:34:30.158Z,3.50
2023-03-21T04:36:57.955Z,3.00
2023-03-21T04:39:25.671Z,2.80
2023-03-21T04:41:53.450Z,2.90
2023-03-21T04:44:22.775Z,2.65
2023-03-21T04:46:51.711Z,2.87
2023-03-21T04:49:19.763Z,2.70
2023-03-21T04:51:47.421Z,2.92
2023-03-21T04:54:18.151Z,3.03
2023-03-21T04:56:45.873Z,3.03
2023-03-21T04:59:16.629Z,3.03
2023-03-21T05:01:50.055Z,2.88
2023-03-21T05:04:18.707Z,3.72
2023-03-21T05:06:47.391Z,3.22
2023-03-21T05:09:15.290Z,3.42
2023-03-21T05:11:43.584Z,3.50
2023-03-21T05:14:13.193Z,3.22
2023-03-21T05:16:45.120Z,3.45
2023-03-21T05:19:14.299Z,3.60
2023-03-21T05:21:42.672Z,3.35
2023-03-21T05:24:14.211Z,4.88
2023-03-21T05:26:42.386Z,3.78
2023-03-21T05:29:11.199Z,3.50
2023-03-21T05:31:38.993Z,3.70
2023-03-21T05:34:06.759Z,3.25
2023-03-21T05:36:36.216Z,3.60
2023-03-21T05:39:04.821Z,2.90
2023-03-21T05:41:32.821Z,3.72
2023-03-21T05:44:00.783Z,3.50
2023-03-21T05:46:29.250Z,3.85
2023-03-21T05:48:57.090Z,3.42
2023-03-21T05:51:24.943Z,3.60
2023-03-21T05:53:54.097Z,3.38
2023-03-21T05:56:21.763Z,3.58
2023-03-21T05:58:49.418Z,4.00
2023-03-21T06:01:17.304Z,3.65
2023-03-21T06:03:45.178Z,3.67
2023-03-21T06:06:13.153Z,4.00
2023-03-21T06:08:40.837Z,3.95
2023-03-21T06:11:22.025Z,4.75
2023-03-21T06:13:49.697Z,3.40
2023-03-21T06:16:17.493Z,3.45
2023-03-21T06:18:45.331Z,3.70
2023-03-21T06:21:13.175Z,3.83
2023-03-21T06:23:41.143Z,3.42
2023-03-21T06:26:10.322Z,3.70
2023-03-21T06:28:38.105Z,4.03
2023-03-21T06:31:06.966Z,4.15
2023-03-21T06:33:34.769Z,3.92
2023-03-21T06:36:02.553Z,3.83
2023-03-21T06:38:30.400Z,3.95
2023-03-21T06:40:58.835Z,3.80
2023-03-21T06:43:28.080Z,4.82
2023-03-21T06:45:56.251Z,3.60
2023-03-21T06:48:24.164Z,3.67
2023-03-21T06:50:53.635Z,3.77
2023-03-21T06:53:24.482Z,3.97
2023-03-21T06:55:52.703Z,4.25
2023-03-21T06:58:20.580Z,3.58
2023-03-21T07:00:50.228Z,3.63
2023-03-21T07:03:19.245Z,3.43
2023-03-21T07:05:50.750Z,4.20
2023-03-21T07:08:18.778Z,3.50
2023-03-21T07:10:47.206Z,3.53
2023-03-21T07:13:15.696Z,3.40
2023-03-21T07:15:43.939Z,3.60
2023-03-21T07:18:13.069Z,3.93
2023-03-21T07:20:40.827Z,3.87
2023-03-21T07:23:08.657Z,3.60
2023-03-21T07:25:37.186Z,3.93
2023-03-21T07:28:09.058Z,4.00
2023-03-21T07:30:37.114Z,3.30
2023-03-21T07:33:05.023Z,4.10
2023-03-21T07:35:36.706Z,4.10
2023-03-21T07:38:05.409Z,3.80
2023-03-21T07:40:34.002Z,3.63
2023-03-21T07:45:30.724Z,3.53
2023-03-21T07:47:58.469Z,3.90
2023-03-21T07:50:26.209Z,3.77
2023-03-21T07:52:55.533Z,3.77
2023-03-21T07:55:23.430Z,3.00
2023-03-21T07:57:52.073Z,3.10
2023-03-21T08:00:23.252Z,2.80
2023-03-21T08:02:57.925Z,2.80
2023-03-21T08:05:31.372Z,2.90
2023-03-21T08:08:01.285Z,2.77
2023-03-21T08:10:29.236Z,2.20
2023-03-21T08:12:57.177Z,2.07
2023-03-21T08:15:25.101Z,2.30
2023-03-21T08:17:53.028Z,2.63
2023-03-21T08:20:23.512Z,2.70
2023-03-21T08:22:51.922Z,3.03
2023-03-21T08:25:22.875Z,2.70
2023-03-21T08:27:51.868Z,2.60
2023-03-21T08:30:21.609Z,2.27
2023-03-21T08:32:49.859Z,2.30
2023-03-21T08:35:20.538Z,1.80
2023-03-21T08:37:48.705Z,1.97
2023-03-21T08:40:18.820Z,2.40
2023-03-21T08:42:48.402Z,2.03
2023-03-21T08:45:18.307Z,2.53
2023-03-21T08:47:46.323Z,2.30
2023-03-21T08:50:17.103Z,2.10
2023-03-21T08:52:45.678Z,2.00
2023-03-21T08:55:14.725Z,1.90
2023-03-21T08:57:42.572Z,2.20
2023-03-21T09:00:14.774Z,2.07
2023-03-21T09:02:43.697Z,1.53
2023-03-21T09:05:13.045Z,1.50
2023-03-21T09:07:42.324Z,1.60
2023-03-21T09:10:20.697Z,1.70
2023-03-21T09:12:50.865Z,1.80
2023-03-21T09:15:21.745Z,1.80
2023-03-21T09:17:53.014Z,2.27
2023-03-21T09:20:26.180Z,1.70
2023-03-21T09:22:54.475Z,2.10
2023-03-21T09:25:22.403Z,1.63
2023-03-21T09:27:51.415Z,1.67
2023-03-21T09:30:24.191Z,1.43
2023-03-21T09:32:55.779Z,1.70
2023-03-21T09:35:24.755Z,1.50
2023-03-21T09:37:52.619Z,1.70
2023-03-21T09:40:47.538Z,2.17
2023-03-21T09:43:28.869Z,1.60
2023-03-21T09:46:02.404Z,1.53
2023-03-21T09:48:39.628Z,1.60
2023-03-21T09:51:17.749Z,1.80
2023-03-21T09:53:49.485Z,1.90
2023-03-21T09:56:17.605Z,1.77
2023-03-21T09:58:52.982Z,1.70
2023-03-21T10:01:28.472Z,1.87
2023-03-21T10:04:00.163Z,2.30
2023-03-21T10:06:30.626Z,2.23
2023-03-21T10:09:01.577Z,2.07
2023-03-21T10:11:32.445Z,1.80
2023-03-21T10:14:04.897Z,1.93
2023-03-21T10:16:37.717Z,2.30
2023-03-21T10:19:12.240Z,1.80
2023-03-21T10:21:59.608Z,2.00
2023-03-21T10:24:30.603Z,1.50
2023-03-21T10:26:58.834Z,1.87
2023-03-21T10:29:29.706Z,1.73
2023-03-21T10:31:59.048Z,1.97
2023-03-21T10:34:33.832Z,1.90
2023-03-21T10:37:03.800Z,1.53
2023-03-21T10:39:36.778Z,2.10
2023-03-21T10:42:05.526Z,1.70
2023-03-21T10:44:36.215Z,2.03
2023-03-21T10:47:09.032Z,1.70
2023-03-21T10:49:56.449Z,2.10
2023-03-21T10:52:28.953Z,1.80
2023-03-21T10:55:08.499Z,1.83
2023-03-21T10:57:38.182Z,1.47
2023-03-21T11:00:15.062Z,1.60
2023-03-21T11:02:48.903Z,1.93
2023-03-21T11:05:22.980Z,1.47
2023-03-21T11:08:00.096Z,1.47
2023-03-21T11:10:31.478Z,1.33
2023-03-21T11:13:04.813Z,1.50
2023-03-21T11:15:34.581Z,1.50
2023-03-21T11:18:15.982Z,1.37
2023-03-21T11:20:49.980Z,1.40
2023-03-21T11:23:20.661Z,1.30
2023-03-21T11:25:50.530Z,1.40
2023-03-21T11:28:22.406Z,1.60
2023-03-21T11:30:55.535Z,1.13
2023-03-21T11:33:28.344Z,1.30
2023-03-21T11:36:04.124Z,1.23
2023-03-21T11:38:34.255Z,1.00
2023-03-21T11:41:03.725Z,1.00
2023-03-21T11:43:33.965Z,1.90
2023-03-21T11:46:08.649Z,1.03
2023-03-21T11:48:42.101Z,1.23
2023-03-21T11:51:20.405Z,1.13
2023-03-21T11:54:01.585Z,1.00
2023-03-21T11:56:33.438Z,0.90
2023-03-21T11:59:27.332Z,1.17
2023-03-21T12:02:04.953Z,0.73
2023-03-21T12:04:42.650Z,0.90
2023-03-21T12:07:24.894Z,1.10
2023-03-21T12:10:00.986Z,1.47
2023-03-21T12:12:39.673Z,0.87
2023-03-21T12:15:18.850Z,1.10
2023-03-21T12:17:57.805Z,1.10
2023-03-21T12:20:40.896Z,1.20
2023-03-21T12:23:26.260Z,1.30
2023-03-21T12:26:09.945Z,1.30
2023-03-21T12:28:56.537Z,1.47
2023-03-21T12:31:33.132Z,1.20
2023-03-21T12:34:15.212Z,1.50
2023-03-21T12:36:57.108Z,1.50
2023-03-21T12:39:30.145Z,1.37
2023-03-21T12:42:20.354Z,1.73
2023-03-21T12:44:53.104Z,1.50
2023-03-21T12:47:25.833Z,1.30
2023-03-21T12:49:59.034Z,1.10
2023-03-21T12:52:32.757Z,1.20
2023-03-21T12:55:05.818Z,1.30
2023-03-21T12:57:40.154Z,1.50
2023-03-21T13:00:17.597Z,1.17
2023-03-21T13:02:51.894Z,1.40
2023-03-21T13:05:23.283Z,1.20
2023-03-21T13:07:59.139Z,1.63
2023-03-21T13:10:27.570Z,1.50
2023-03-21T13:13:19.871Z,1.47
2023-03-21T13:15:58.870Z,1.70
2023-03-21T13:18:40.782Z,1.40
2023-03-21T13:21:16.628Z,1.60
2023-03-21T13:24:00.666Z,1.30
2023-03-21T13:26:51.007Z,1.57
2023-03-21T13:29:29.595Z,1.67
2023-03-21T13:32:07.509Z,1.43
2023-03-21T13:34:35.562Z,1.67
2023-03-21T13:37:04.387Z,1.17
2023-03-21T13:39:33.802Z,1.73
2023-03-21T13:42:19.854Z,1.50
2023-03-21T13:44:50.905Z,1.40
2023-03-21T13:47:40.579Z,1.30
2023-03-21T13:50:35.429Z,1.40
2023-03-21T13:53:30.861Z,1.33
2023-03-21T13:56:10.846Z,1.20
2023-03-21T13:58:40.733Z,1.57
2023-03-21T14:01:23.695Z,1.40
2023-03-21T14:03:58.982Z,1.00
2023-03-21T14:06:34.988Z,1.17
2023-03-21T14:09:04.808Z,1.40
2023-03-21T14:11:36.915Z,1.50
2023-03-21T14:14:07.095Z,2.13
2023-03-21T14:16:35.052Z,2.20
2023-03-21T14:19:05.681Z,3.43
2023-03-21T14:21:35.601Z,2.60
2023-03-21T14:24:05.268Z,2.47
2023-03-21T14:26:50.510Z,2.73
2023-03-21T14:29:26.494Z,2.90
2023-03-21T14:31:56.186Z,2.93
2023-03-21T14:34:24.964Z,2.50
2023-03-21T14:36:58.265Z,2.43
2023-03-21T14:39:30.068Z,2.17
2023-03-21T14:42:05.554Z,2.60
2023-03-21T14:44:53.518Z,2.90
2023-03-21T14:47:23.963Z,2.43
2023-03-21T14:49:52.816Z,2.60
2023-03-21T14:52:24.984Z,3.13
2023-03-21T14:54:53.800Z,2.53
2023-03-21T14:57:26.038Z,2.50
2023-03-21T14:59:57.988Z,2.87
2023-03-21T15:02:29.249Z,3.03
2023-03-21T15:04:59.566Z,2.93
2023-03-21T15:07:30.581Z,2.60
2023-03-21T15:10:01.078Z,2.80
2023-03-21T15:12:30.520Z,3.17
2023-03-21T15:14:59.592Z,3.13
2023-03-21T15:17:28.432Z,3.00
2023-03-21T15:19:56.215Z,2.70
2023-03-21T15:22:30.337Z,2.80
2023-03-21T15:25:01.610Z,3.43
2023-03-21T15:27:34.378Z,4.00
2023-03-21T15:30:02.355Z,2.60
2023-03-21T15:32:30.397Z,2.90
2023-03-21T15:35:08.591Z,3.10
2023-03-21T15:37:38.239Z,3.40
2023-03-21T15:40:21.381Z,2.90
2023-03-21T15:42:50.444Z,2.93
2023-03-21T15:45:22.852Z,2.50
2023-03-21T15:47:55.095Z,2.27
2023-03-21T15:50:29.461Z,3.07
2023-03-21T15:53:00.593Z,2.93
2023-03-21T15:55:35.505Z,2.90
2023-03-21T15:58:13.188Z,2.87
2023-03-21T16:00:43.948Z,3.07
2023-03-21T16:03:18.450Z,3.40
2023-03-21T16:06:10.923Z,3.20
2023-03-21T16:08:46.017Z,3.00
2023-03-21T16:11:19.219Z,3.47
2023-03-21T16:13:48.309Z,3.33
2023-03-21T16:16:19.097Z,3.60
2023-03-21T16:18:46.920Z,2.73
2023-03-21T16:21:16.515Z,3.40
2023-03-21T16:23:44.612Z,3.57
2023-03-21T16:26:14.203Z,3.20
2023-03-21T16:28:41.884Z,5.80
2023-03-21T16:31:15.123Z,3.67
2023-03-21T16:33:44.355Z,3.63
2023-03-21T16:36:15.502Z,3.50
2023-03-21T16:38:43.305Z,3.73
2023-03-21T16:41:12.711Z,3.40
2023-03-21T16:43:43.168Z,3.30
2023-03-21T16:46:15.666Z,3.13
2023-03-21T16:48:46.107Z,3.00
2023-03-21T16:51:15.133Z,3.20
2023-03-21T16:53:43.245Z,3.00
2023-03-21T16:56:16.190Z,4.23
2023-03-21T16:58:45.362Z,3.13
2023-03-21T17:01:30.120Z,2.70
2023-03-21T17:03:58.744Z,3.17
2023-03-21T17:06:28.897Z,2.80
2023-03-21T17:08:57.987Z,4.00
2023-03-21T17:11:31.512Z,3.23
2023-03-21T17:13:59.325Z,3.20
2023-03-21T17:16:27.533Z,3.17
2023-03-21T17:18:56.824Z,2.90
2023-03-21T17:21:26.245Z,3.30
2023-03-21T17:23:54.596Z,3.00
2023-03-21T17:26:24.999Z,3.20
2023-03-21T17:28:54.864Z,3.70
2023-03-21T17:31:25.125Z,2.87
2023-03-21T17:33:52.960Z,3.37
2023-03-21T17:36:25.883Z,3.30
2023-03-21T17:38:53.985Z,3.57
2023-03-21T17:41:22.744Z,3.33
2023-03-21T17:43:52.303Z,3.27
2023-03-21T17:46:23.220Z,3.30
2023-03-21T17:48:51.755Z,3.60
2023-03-21T17:51:20.220Z,3.77
2023-03-21T17:53:51.691Z,3.13
2023-03-21T17:56:23.048Z,3.70
2023-03-21T17:58:50.753Z,3.00
2023-03-21T18:01:18.541Z,4.03
2023-03-21T18:03:46.407Z,3.83
2023-03-21T18:06:18.315Z,4.27
2023-03-21T18:08:47.348Z,3.80
2023-03-21T18:11:18.240Z,3.57
2023-03-21T18:13:46.898Z,3.73
2023-03-21T18:16:16.638Z,3.90
2023-03-21T18:18:46.672Z,3.60
2023-03-21T18:21:18.850Z,3.20
2023-03-21T18:23:47.796Z,3.30
2023-03-21T18:26:19.837Z,3.17
2023-03-21T18:29:21.517Z,3.00
2023-03-21T18:31:37.663Z,3.10
2023-03-21T18:34:05.602Z,2.90
2023-03-21T18:36:34.453Z,3.37
2023-03-21T18:39:03.690Z,3.30
2023-03-21T18:41:32.915Z,3.70
2023-03-21T18:44:05.253Z,3.53
2023-03-21T18:46:46.907Z,3.47
2023-03-21T18:49:58.818Z,3.90
2023-03-21T18:52:03.385Z,3.57
2023-03-21T18:54:31.584Z,3.63
2023-03-21T18:59:48.787Z,3.60
2023-03-21T19:02:17.040Z,3.60
2023-03-21T19:04:45.481Z,3.20
2023-03-21T19:07:13.964Z,3.67
2023-03-21T19:12:31.808Z,4.27
2023-03-21T19:14:59.715Z,3.47
2023-03-21T19:18:19.336Z,3.30
2023-03-21T19:20:16.510Z,4.33
2023-03-21T19:22:44.653Z,3.77
2023-03-21T19:25:14.552Z,3.90
2023-03-21T19:27:43.970Z,3.70
2023-03-21T19:30:15.821Z,4.07
2023-03-21T19:32:44.574Z,3.70
2023-03-21T19:35:13.551Z,3.47
2023-03-21T19:37:41.686Z,4.03
2023-03-21T19:40:11.238Z,3.90
2023-03-21T19:42:40.304Z,4.60
2023-03-21T19:45:11.503Z,4.13
2023-03-21T19:47:39.688Z,4.10
2023-03-21T19:50:47.244Z,3.97
2023-03-21T19:52:57.282Z,4.53
2023-03-21T19:55:25.939Z,3.57
2023-03-21T19:57:54.045Z,3.20
2023-03-21T20:00:41.448Z,3.60
2023-03-21T20:03:11.098Z,4.37
2023-03-21T20:05:39.048Z,4.00
2023-03-21T20:08:10.996Z,5.17
2023-03-21T20:10:39.008Z,3.83
2023-03-21T20:13:07.036Z,4.10
2023-03-21T20:15:46.092Z,3.40
2023-03-21T20:18:15.683Z,3.70
2023-03-21T20:20:43.427Z,4.10
2023-03-21T20:23:11.727Z,4.60
2023-03-21T20:25:45.024Z,3.90
2023-03-21T20:28:17.321Z,4.23
2023-03-21T20:30:57.019Z,3.33
2023-03-21T20:33:25.504Z,3.90
2023-03-21T20:38:45.652Z,4.27
2023-03-21T20:41:13.466Z,3.70
2023-03-21T20:46:31.657Z,4.17
2023-03-21T20:48:59.797Z,4.33
2023-03-21T20:54:16.240Z,4.70
2023-03-21T20:56:44.272Z,4.93
2023-03-21T20:59:20.843Z,4.87
2023-03-21T21:01:53.252Z,4.50
2023-03-21T21:04:23.110Z,4.83
2023-03-21T21:06:58.104Z,4.53
2023-03-21T21:09:25.793Z,4.63
2023-03-21T21:12:10.506Z,4.37
2023-03-21T21:14:39.027Z,5.13
2023-03-21T21:17:24.557Z,4.30
2023-03-21T21:19:56.246Z,4.47
2023-03-21T21:22:24.184Z,4.67
2023-03-21T21:24:52.455Z,4.50
2023-03-21T21:27:20.982Z,4.63
2023-03-21T21:29:50.043Z,4.87
2023-03-21T21:32:23.550Z,4.97
2023-03-21T21:34:52.373Z,5.20
2023-03-21T21:37:20.205Z,4.33
2023-03-21T21:39:49.527Z,5.40
2023-03-21T21:42:20.037Z,4.40
2023-03-21T21:44:48.491Z,4.70
2023-03-21T21:47:16.361Z,4.73
2023-03-21T21:49:45.608Z,4.50
2023-03-21T21:52:14.446Z,4.60
2023-03-21T21:54:45.792Z,4.70
2023-03-21T21:57:14.188Z,4.67
2023-03-21T21:59:43.095Z,5.30
2023-03-21T22:02:26.877Z,4.43
2023-03-21T22:04:57.505Z,4.97
2023-03-21T22:07:27.614Z,4.77
2023-03-21T22:09:59.007Z,4.57
2023-03-21T22:12:27.092Z,3.73
2023-03-21T22:14:54.993Z,4.47
2023-03-21T22:17:23.277Z,3.87
2023-03-21T22:20:04.632Z,3.77
2023-03-21T22:22:36.570Z,4.53
2023-03-21T22:25:07.669Z,4.20
2023-03-21T22:27:36.204Z,4.10
2023-03-21T22:30:07.424Z,4.53
2023-03-21T22:32:36.400Z,4.50
2023-03-21T22:35:08.408Z,4.33
2023-03-21T22:37:41.716Z,4.00
2023-03-21T22:40:13.144Z,3.87
2023-03-21T22:42:42.555Z,4.37
2023-03-21T22:45:13.109Z,3.90
2023-03-21T22:47:41.096Z,4.17
2023-03-21T22:50:12.304Z,3.50
2023-03-21T22:52:41.397Z,3.70
2023-03-21T22:55:12.544Z,3.70
2023-03-21T22:57:40.335Z,3.73
2023-03-21T23:00:13.806Z,4.07
2023-03-21T23:02:42.042Z,4.63
2023-03-21T23:05:11.470Z,4.57
2023-03-21T23:07:39.814Z,4.20
2023-03-21T23:10:12.183Z,4.03
2023-03-21T23:12:40.322Z,3.90
2023-03-21T23:15:09.796Z,4.57
2023-03-21T23:17:38.641Z,3.93
2023-03-21T23:20:08.497Z,4.40
2023-03-21T23:22:37.010Z,3.80
2023-03-21T23:25:05.905Z,4.60
2023-03-21T23:27:36.250Z,3.97
2023-03-21T23:30:04.983Z,3.40
2023-03-21T23:32:33.054Z,3.80
2023-03-21T23:35:01.176Z,3.87
2023-03-21T23:37:30.051Z,3.80
2023-03-21T23:39:57.934Z,4.07
2023-03-21T23:42:27.043Z,3.50
2023-03-21T23:44:57.090Z,3.87
2023-03-21T23:47:25.010Z,3.53
2023-03-21T23:49:52.890Z,3.77
2023-03-21T23:52:20.892Z,4.00
2023-03-21T23:54:48.718Z,4.03
2023-03-21T23:57:17.188Z,3.60
2023-03-21T23:59:46.884Z,3.47
